createdAt,value
2023-05-10T00:00:18.616Z,100062.19
2023-05-10T00:02:46.693Z,100059.69
2023-05-10T00:05:14.442Z,100057.13
2023-05-10T00:07:45.499Z,100062.69
2023-05-10T00:10:13.662Z,100055.06
2023-05-10T00:12:41.477Z,100053.19
2023-05-10T00:15:11.415Z,100054.63
2023-05-10T00:17:39.107Z,100057.06
2023-05-10T00:20:07.827Z,100061.28
2023-05-10T00:22:35.587Z,100057.91
2023-05-10T00:25:03.744Z,100061.28
2023-05-10T00:27:31.416Z,100056.69
2023-05-10T00:29:59.110Z,100056.16
2023-05-10T00:32:28.137Z,100053.84
2023-05-10T00:34:55.795Z,100052.94
2023-05-10T00:37:23.795Z,100042.69
2023-05-10T00:39:51.457Z,100046.97
2023-05-10T00:42:19.151Z,100051.19
2023-05-10T00:44:47.639Z,100046.66
2023-05-10T00:47:15.473Z,100045.50
2023-05-10T00:49:44.635Z,100046.06
2023-05-10T00:52:12.405Z,100052.03
2023-05-10T00:54:40.137Z,100050.09
2023-05-10T00:57:07.845Z,100046.50
2023-05-10T00:59:35.569Z,100049.00
2023-05-10T01:02:03.931Z,100053.34
2023-05-10T01:04:32.322Z,100059.78
2023-05-10T01:07:02.032Z,100048.16
2023-05-10T01:09:30.026Z,100045.72
2023-05-10T01:11:58.616Z,100044.66
2023-05-10T01:14:27.185Z,100048.25
2023-05-10T01:16:54.968Z,100043.84
2023-05-10T01:19:26.091Z,100050.09
2023-05-10T01:22:02.241Z,100050.84
2023-05-10T01:24:47.794Z,100044.44
2023-05-10T01:27:41.019Z,100052.94
2023-05-10T01:30:59.450Z,100037.88
2023-05-10T01:33:32.443Z,100054.91
2023-05-10T01:36:07.553Z,100047.63
2023-05-10T01:38:41.288Z,100051.25
2023-05-10T01:41:15.835Z,100045.88
2023-05-10T01:43:48.217Z,100049.81
2023-05-10T01:46:19.151Z,100049.38
2023-05-10T01:48:50.246Z,100062.38
2023-05-10T01:51:21.098Z,100048.09
2023-05-10T01:53:50.197Z,100052.63
2023-05-10T01:56:18.292Z,100052.53
2023-05-10T01:58:47.462Z,100054.03
2023-05-10T02:01:15.464Z,100050.91
2023-05-10T02:03:44.744Z,100051.31
2023-05-10T02:06:15.388Z,100052.28
2023-05-10T02:08:46.511Z,100053.31
2023-05-10T02:11:15.646Z,100057.06
2023-05-10T02:13:44.524Z,100054.47
2023-05-10T02:16:12.530Z,100059.53
2023-05-10T02:18:41.912Z,100055.38
2023-05-10T02:21:10.757Z,100057.59
2023-05-10T02:23:40.256Z,100057.28
2023-05-10T02:26:08.609Z,100060.66
2023-05-10T02:28:38.595Z,100063.44
2023-05-10T02:31:07.590Z,100067.94
2023-05-10T02:33:36.298Z,100064.66
2023-05-10T02:36:04.850Z,100068.16
2023-05-10T02:38:33.348Z,100062.97
2023-05-10T02:41:03.831Z,100070.00
2023-05-10T02:43:32.486Z,100052.59
2023-05-10T02:46:00.275Z,100059.59
2023-05-10T02:48:28.034Z,100060.94
2023-05-10T02:50:57.239Z,100063.56
2023-05-10T02:53:27.580Z,100063.66
2023-05-10T02:55:59.830Z,100069.63
2023-05-10T02:58:29.144Z,100070.09
2023-05-10T03:00:56.882Z,100073.75
2023-05-10T03:03:24.541Z,100073.19
2023-05-10T03:05:54.741Z,100063.72
2023-05-10T03:08:22.444Z,100069.03
2023-05-10T03:10:57.825Z,100069.38
2023-05-10T03:13:31.668Z,100066.94
2023-05-10T03:16:03.068Z,100073.50
2023-05-10T03:18:38.803Z,100074.38
2023-05-10T03:21:11.572Z,100073.41
2023-05-10T03:23:43.304Z,100073.59
2023-05-10T03:26:11.377Z,100070.53
2023-05-10T03:28:41.624Z,100068.03
2023-05-10T03:31:09.461Z,100073.00
2023-05-10T03:33:37.253Z,100076.81
2023-05-10T03:36:05.510Z,100080.44
2023-05-10T03:38:33.163Z,100083.63
2023-05-10T03:41:00.815Z,100082.44
2023-05-10T03:43:28.607Z,100090.28
2023-05-10T03:45:57.675Z,100083.19
2023-05-10T03:48:25.383Z,100086.25
2023-05-10T03:50:53.049Z,100090.34
2023-05-10T03:53:21.110Z,100100.50
2023-05-10T03:55:48.788Z,100099.03
2023-05-10T03:58:16.531Z,100100.34
2023-05-10T04:00:46.088Z,100101.56
2023-05-10T04:03:15.807Z,100107.97
2023-05-10T04:05:43.624Z,100105.59
2023-05-10T04:08:11.511Z,100105.50
2023-05-10T04:10:39.151Z,100108.44
2023-05-10T04:13:06.963Z,100110.63
2023-05-10T04:15:34.785Z,100104.94
2023-05-10T04:18:02.537Z,100115.88
2023-05-10T04:20:31.563Z,100112.19
2023-05-10T04:22:59.291Z,100117.16
2023-05-10T04:25:27.003Z,100126.81
2023-05-10T04:27:54.674Z,100124.50
2023-05-10T04:30:22.722Z,100121.50
2023-05-10T04:32:50.519Z,100130.06
2023-05-10T04:35:18.357Z,100131.03
2023-05-10T04:37:47.443Z,100118.28
2023-05-10T04:40:15.416Z,100116.34
2023-05-10T04:42:43.384Z,100125.72
2023-05-10T04:45:11.947Z,100118.84
2023-05-10T04:47:39.860Z,100125.47
2023-05-10T04:50:08.844Z,100133.56
2023-05-10T04:52:37.332Z,100130.25
2023-05-10T04:55:08.460Z,100127.09
2023-05-10T04:57:36.126Z,100129.94
2023-05-10T05:00:04.034Z,100136.53
2023-05-10T05:02:31.777Z,100144.13
2023-05-10T05:04:59.757Z,100145.16
2023-05-10T05:07:27.506Z,100139.31
2023-05-10T05:09:55.238Z,100139.31
2023-05-10T05:12:24.310Z,100138.69
2023-05-10T05:14:51.988Z,100154.03
2023-05-10T05:17:19.665Z,100151.06
2023-05-10T05:19:47.742Z,100154.75
2023-05-10T05:22:16.181Z,100157.09
2023-05-10T05:24:44.541Z,100152.84
2023-05-10T05:27:12.202Z,100158.88
2023-05-10T05:29:41.236Z,100160.13
2023-05-10T05:32:09.540Z,100164.91
2023-05-10T05:34:37.341Z,100154.13
2023-05-10T05:37:05.066Z,100146.66
2023-05-10T05:39:32.702Z,100149.28
2023-05-10T05:42:00.401Z,100144.81
2023-05-10T05:44:29.838Z,100154.53
2023-05-10T05:46:58.969Z,100161.84
2023-05-10T05:49:26.623Z,100156.22
2023-05-10T05:51:54.411Z,100167.28
2023-05-10T05:54:22.517Z,100176.44
2023-05-10T05:56:50.421Z,100168.94
2023-05-10T05:59:18.173Z,100176.38
2023-05-10T06:01:46.319Z,100178.78
2023-05-10T06:04:15.402Z,100182.53
2023-05-10T06:06:43.327Z,100182.16
2023-05-10T06:09:11.050Z,100180.81
2023-05-10T06:11:38.904Z,100175.66
2023-05-10T06:14:08.142Z,100187.72
2023-05-10T06:16:36.199Z,100192.91
2023-05-10T06:19:04.195Z,100192.13
2023-05-10T06:21:33.773Z,100196.66
2023-05-10T06:24:01.471Z,100192.63
2023-05-10T06:26:29.245Z,100185.44
2023-05-10T06:28:56.910Z,100185.63
2023-05-10T06:31:24.596Z,100184.16
2023-05-10T06:33:53.287Z,100191.34
2023-05-10T06:36:22.961Z,100198.41
2023-05-10T06:38:52.255Z,100202.97
2023-05-10T06:41:19.948Z,100212.34
2023-05-10T06:43:47.602Z,100210.81
2023-05-10T06:46:15.292Z,100209.84
2023-05-10T06:48:42.993Z,100212.78
2023-05-10T06:51:10.769Z,100212.22
2023-05-10T06:53:38.465Z,100224.53
2023-05-10T06:56:07.683Z,100226.94
2023-05-10T06:58:35.344Z,100223.69
2023-05-10T07:01:06.453Z,100230.44
2023-05-10T07:03:34.282Z,100220.41
2023-05-10T07:06:04.089Z,100221.72
2023-05-10T07:08:32.276Z,100229.88
2023-05-10T07:11:02.500Z,100219.09
2023-05-10T07:13:32.385Z,100229.50
2023-05-10T07:16:00.304Z,100233.00
2023-05-10T07:18:28.349Z,100238.50
2023-05-10T07:20:56.142Z,100246.44
2023-05-10T07:23:23.835Z,100247.41
2023-05-10T07:25:53.063Z,100245.19
2023-05-10T07:28:20.931Z,100237.44
2023-05-10T07:30:50.086Z,100249.56
2023-05-10T07:33:18.152Z,100237.38
2023-05-10T07:35:45.859Z,100247.75
2023-05-10T07:38:13.559Z,100248.69
2023-05-10T07:40:41.631Z,100259.25
2023-05-10T07:43:09.365Z,100245.13
2023-05-10T07:45:37.102Z,100265.97
2023-05-10T07:48:06.445Z,100265.16
2023-05-10T07:50:34.206Z,100256.16
2023-05-10T07:53:01.904Z,100256.28
2023-05-10T07:55:29.543Z,100259.81
2023-05-10T07:57:57.771Z,100269.09
2023-05-10T08:00:25.501Z,100274.56
2023-05-10T08:02:53.966Z,100270.91
2023-05-10T08:05:23.131Z,100274.38
2023-05-10T08:07:50.803Z,100280.03
2023-05-10T08:10:18.545Z,100278.34
2023-05-10T08:12:46.224Z,100285.44
2023-05-10T08:15:13.954Z,100287.97
2023-05-10T08:17:42.004Z,100292.56
2023-05-10T08:20:10.309Z,100275.53
2023-05-10T08:22:39.357Z,100294.72
2023-05-10T08:25:08.085Z,100297.66
2023-05-10T08:27:35.810Z,100303.44
2023-05-10T08:30:03.471Z,100302.13
2023-05-10T08:32:31.180Z,100295.59
2023-05-10T08:34:58.895Z,100301.53
2023-05-10T08:37:26.661Z,100304.22
2023-05-10T08:39:55.673Z,100306.66
2023-05-10T08:42:24.713Z,100302.81
2023-05-10T08:44:52.501Z,100319.19
2023-05-10T08:47:20.776Z,100309.75
2023-05-10T08:49:49.932Z,100301.97
2023-05-10T08:52:18.895Z,100308.59
2023-05-10T08:54:46.655Z,100301.06
2023-05-10T08:57:15.675Z,100311.31
2023-05-10T08:59:43.341Z,100314.84
2023-05-10T09:02:12.238Z,100324.31
2023-05-10T09:04:40.071Z,100327.56
2023-05-10T09:07:08.448Z,100322.50
2023-05-10T09:09:36.637Z,100316.03
2023-05-10T09:12:04.364Z,100326.97
2023-05-10T09:14:36.759Z,100320.81
2023-05-10T09:17:04.764Z,100318.88
2023-05-10T09:19:32.444Z,100325.00
2023-05-10T09:22:01.189Z,100318.16
2023-05-10T09:24:28.898Z,100326.66
2023-05-10T09:26:59.268Z,100346.44
2023-05-10T09:29:27.048Z,100334.84
2023-05-10T09:31:56.606Z,100347.34
2023-05-10T09:34:31.642Z,100342.28
2023-05-10T09:37:01.809Z,100352.31
2023-05-10T09:39:33.829Z,100350.66
2023-05-10T09:42:04.682Z,100357.69
2023-05-10T09:44:33.506Z,100339.75
2023-05-10T09:47:02.674Z,100347.91
2023-05-10T09:49:30.504Z,100360.41
2023-05-10T09:52:05.400Z,100352.22
2023-05-10T09:54:33.534Z,100368.81
2023-05-10T09:57:01.659Z,100362.56
2023-05-10T09:59:31.387Z,100370.91
2023-05-10T10:01:59.888Z,100363.56
2023-05-10T10:04:29.340Z,100368.41
2023-05-10T10:07:04.879Z,100349.97
2023-05-10T10:09:33.155Z,100369.28
2023-05-10T10:12:02.250Z,100367.69
2023-05-10T10:14:30.799Z,100370.59
2023-05-10T10:19:30.645Z,100371.56
2023-05-10T10:22:00.000Z,100372.06
2023-05-10T10:24:27.670Z,100380.38
2023-05-10T10:26:58.259Z,100370.00
2023-05-10T10:29:30.701Z,100382.28
2023-05-10T10:32:06.183Z,100383.47
2023-05-10T10:34:35.313Z,100381.31
2023-05-10T10:37:06.677Z,100373.09
2023-05-10T10:39:37.386Z,100394.53
2023-05-10T10:42:06.392Z,100391.13
2023-05-10T10:44:39.057Z,100370.22
2023-05-10T10:47:12.300Z,100375.69
2023-05-10T10:49:52.534Z,100390.09
2023-05-10T10:52:24.971Z,100376.81
2023-05-10T10:54:53.988Z,100374.28
2023-05-10T10:57:23.587Z,100397.28
2023-05-10T10:59:51.812Z,100388.00
2023-05-10T11:02:36.323Z,100394.84
2023-05-10T11:05:45.894Z,100379.31
2023-05-10T11:08:28.875Z,100393.75
2023-05-10T11:11:08.963Z,100399.38
2023-05-10T11:13:40.747Z,100399.34
2023-05-10T11:16:16.878Z,100401.56
2023-05-10T11:18:55.484Z,100407.19
2023-05-10T11:21:23.665Z,100404.50
2023-05-10T11:23:57.106Z,100401.19
2023-05-10T11:26:26.608Z,100404.38
2023-05-10T11:28:56.259Z,100405.72
2023-05-10T11:31:24.757Z,100413.47
2023-05-10T11:33:53.738Z,100408.66
2023-05-10T11:36:22.509Z,100398.72
2023-05-10T11:38:51.850Z,100406.09
2023-05-10T11:41:22.704Z,100410.91
2023-05-10T11:43:52.245Z,100415.09
2023-05-10T11:46:21.609Z,100421.97
2023-05-10T11:48:51.841Z,100418.38
2023-05-10T11:51:22.930Z,100435.31
2023-05-10T11:53:54.398Z,100428.84
2023-05-10T11:56:22.775Z,100422.78
2023-05-10T11:58:55.289Z,100424.09
2023-05-10T12:01:23.255Z,100426.63
2023-05-10T12:03:51.383Z,100434.34
2023-05-10T12:06:20.776Z,100419.38
2023-05-10T12:08:53.357Z,100423.56
2023-05-10T12:11:23.083Z,100427.56
2023-05-10T12:13:50.948Z,100437.28
2023-05-10T12:16:19.750Z,100443.94
2023-05-10T12:18:47.844Z,100443.78
2023-05-10T12:21:16.842Z,100437.72
2023-05-10T12:23:44.644Z,100450.41
2023-05-10T12:26:12.490Z,100450.94
2023-05-10T12:28:41.543Z,100446.44
2023-05-10T12:31:09.419Z,100460.75
2023-05-10T12:33:42.596Z,100460.34
2023-05-10T12:36:11.300Z,100463.34
2023-05-10T12:38:41.190Z,100465.78
2023-05-10T12:41:09.898Z,100459.06
2023-05-10T12:43:37.992Z,100433.91
2023-05-10T12:46:10.802Z,100460.09
2023-05-10T12:48:39.927Z,100455.69
2023-05-10T12:51:10.240Z,100463.06
2023-05-10T12:53:38.158Z,100465.03
2023-05-10T12:56:06.456Z,100465.50
2023-05-10T12:58:36.045Z,100457.28
2023-05-10T13:01:05.100Z,100465.03
2023-05-10T13:03:34.233Z,100470.69
2023-05-10T13:06:01.925Z,100468.38
2023-05-10T13:08:34.089Z,100472.00
2023-05-10T13:11:01.956Z,100468.63
2023-05-10T13:13:29.600Z,100461.19
2023-05-10T13:15:57.249Z,100468.72
2023-05-10T13:18:25.575Z,100467.88
2023-05-10T13:20:56.698Z,100467.63
2023-05-10T13:23:24.433Z,100476.56
2023-05-10T13:25:52.090Z,100475.19
2023-05-10T13:28:19.748Z,100476.44
2023-05-10T13:30:47.433Z,100473.44
2023-05-10T13:33:15.091Z,100478.50
2023-05-10T13:35:42.800Z,100470.59
2023-05-10T13:38:12.200Z,100474.16
2023-05-10T13:40:39.864Z,100476.19
2023-05-10T13:43:07.555Z,100478.25
2023-05-10T13:45:35.204Z,100459.75
2023-05-10T13:48:03.277Z,100466.94
2023-05-10T13:50:31.019Z,100477.00
2023-05-10T13:52:58.672Z,100476.09
2023-05-10T13:55:28.059Z,100456.22
2023-05-10T13:57:55.717Z,100476.59
2023-05-10T14:00:23.728Z,100483.97
2023-05-10T14:02:51.458Z,100480.41
2023-05-10T14:05:22.253Z,100486.06
2023-05-10T14:07:52.919Z,100485.06
2023-05-10T14:10:20.981Z,100470.22
2023-05-10T14:12:49.987Z,100477.25
2023-05-10T14:15:18.331Z,100486.56
2023-05-10T14:17:46.138Z,100487.38
2023-05-10T14:20:13.890Z,100475.25
2023-05-10T14:22:41.906Z,100477.44
2023-05-10T14:25:10.594Z,100487.59
2023-05-10T14:27:38.256Z,100480.19
2023-05-10T14:30:08.877Z,100466.66
2023-05-10T14:32:37.539Z,100472.66
2023-05-10T14:35:06.926Z,100484.19
2023-05-10T14:37:34.654Z,100466.97
2023-05-10T14:40:02.428Z,100486.16
2023-05-10T14:42:30.111Z,100486.69
2023-05-10T14:44:58.188Z,100490.50
2023-05-10T14:47:27.316Z,100493.88
2023-05-10T14:49:55.052Z,100497.97
2023-05-10T14:52:22.759Z,100489.47
2023-05-10T14:54:50.421Z,100494.13
2023-05-10T14:57:18.085Z,100494.31
2023-05-10T14:59:45.756Z,100484.75
2023-05-10T15:02:14.511Z,100492.97
2023-05-10T15:04:43.919Z,100492.91
2023-05-10T15:07:15.326Z,100497.00
2023-05-10T15:09:43.092Z,100490.34
2023-05-10T15:12:10.722Z,100497.84
2023-05-10T15:14:38.384Z,100504.94
2023-05-10T15:17:08.416Z,100506.19
2023-05-10T15:19:36.902Z,100496.22
2023-05-10T15:22:06.273Z,100506.50
2023-05-10T15:24:33.979Z,100509.06
2023-05-10T15:27:02.034Z,100503.66
2023-05-10T15:29:30.492Z,100500.94
2023-05-10T15:31:58.153Z,100509.03
2023-05-10T15:34:25.807Z,100510.88
2023-05-10T15:36:53.487Z,100511.78
2023-05-10T15:39:22.494Z,100512.69
2023-05-10T15:41:50.215Z,100524.56
2023-05-10T15:44:17.875Z,100497.31
2023-05-10T15:46:45.588Z,100512.53
2023-05-10T15:49:13.285Z,100515.19
2023-05-10T15:51:41.616Z,100527.59
2023-05-10T15:54:09.294Z,100528.88
2023-05-10T15:56:38.425Z,100518.78
2023-05-10T15:59:08.573Z,100533.94
2023-05-10T16:01:36.355Z,100536.50
2023-05-10T16:04:04.343Z,100535.66
2023-05-10T16:06:32.776Z,100538.13
2023-05-10T16:09:00.415Z,100544.31
2023-05-10T16:11:28.296Z,100544.03
2023-05-10T16:13:57.387Z,100550.13
2023-05-10T16:16:25.748Z,100546.44
2023-05-10T16:18:53.513Z,100529.91
2023-05-10T16:21:21.258Z,100516.09
2023-05-10T16:23:48.945Z,100528.97
2023-05-10T16:26:16.962Z,100540.00
2023-05-10T16:28:44.644Z,100544.34
2023-05-10T16:31:13.799Z,100542.09
2023-05-10T16:33:41.484Z,100527.09
2023-05-10T16:36:09.324Z,100545.47
2023-05-10T16:38:37.735Z,100541.97
2023-05-10T16:41:06.762Z,100527.78
2023-05-10T16:43:34.511Z,100551.34
2023-05-10T16:46:02.181Z,100545.47
2023-05-10T16:48:31.249Z,100553.09
2023-05-10T16:50:58.942Z,100550.81
2023-05-10T16:53:26.850Z,100552.25
2023-05-10T16:55:54.564Z,100551.34
2023-05-10T16:58:22.285Z,100556.06
2023-05-10T17:00:50.026Z,100554.31
2023-05-10T17:03:17.936Z,100552.50
2023-05-10T17:05:47.052Z,100537.41
2023-05-10T17:08:14.784Z,100555.56
2023-05-10T17:10:42.490Z,100557.41
2023-05-10T17:13:10.893Z,100560.66
2023-05-10T17:15:39.118Z,100564.59
2023-05-10T17:18:07.424Z,100567.47
2023-05-10T17:20:35.338Z,100549.59
2023-05-10T17:23:04.408Z,100548.88
2023-05-10T17:25:32.042Z,100561.06
2023-05-10T17:27:59.763Z,100545.50
2023-05-10T17:30:28.803Z,100555.56
2023-05-10T17:32:56.577Z,100549.25
2023-05-10T17:35:24.642Z,100555.13
2023-05-10T17:37:52.389Z,100553.34
2023-05-10T17:40:21.809Z,100565.75
2023-05-10T17:42:49.703Z,100562.94
2023-05-10T17:45:18.053Z,100557.06
2023-05-10T17:47:46.322Z,100569.16
2023-05-10T17:50:14.180Z,100557.38
2023-05-10T17:52:41.848Z,100570.56
2023-05-10T17:55:10.143Z,100572.81
2023-05-10T17:57:39.179Z,100570.50
2023-05-10T18:00:09.188Z,100586.47
2023-05-10T18:02:37.371Z,100570.59
2023-05-10T18:05:05.740Z,100577.38
2023-05-10T18:07:33.581Z,100582.81
2023-05-10T18:10:01.326Z,100590.22
2023-05-10T18:12:29.089Z,100588.38
2023-05-10T18:14:58.083Z,100580.03
2023-05-10T18:17:26.267Z,100600.00
2023-05-10T18:19:53.974Z,100599.91
2023-05-10T18:22:21.645Z,100601.94
2023-05-10T18:24:49.336Z,100614.91
2023-05-10T18:27:17.216Z,100616.31
2023-05-10T18:29:44.930Z,100616.59
2023-05-10T18:32:13.996Z,100616.03
2023-05-10T18:34:41.669Z,100605.28
2023-05-10T18:37:09.962Z,100600.66
2023-05-10T18:39:37.959Z,100610.09
2023-05-10T18:42:06.286Z,100608.38
2023-05-10T18:44:33.975Z,100620.53
2023-05-10T18:47:01.644Z,100615.75
2023-05-10T18:49:30.689Z,100626.16
2023-05-10T18:51:58.449Z,100626.91
2023-05-10T18:54:26.728Z,100629.53
2023-05-10T18:56:54.424Z,100628.81
2023-05-10T18:59:22.139Z,100647.25
2023-05-10T19:01:51.305Z,100630.94
2023-05-10T19:04:19.329Z,100633.59
2023-05-10T19:06:48.369Z,100629.78
2023-05-10T19:09:16.263Z,100627.41
2023-05-10T19:11:44.008Z,100635.56
2023-05-10T19:14:11.732Z,100635.97
2023-05-10T19:16:41.613Z,100634.84
2023-05-10T19:19:10.161Z,100635.25
2023-05-10T19:21:39.994Z,100635.97
2023-05-10T19:24:10.026Z,100643.53
2023-05-10T19:26:38.318Z,100643.78
2023-05-10T19:29:05.996Z,100643.56
2023-05-10T19:31:34.645Z,100642.25
2023-05-10T19:34:06.065Z,100643.34
2023-05-10T19:36:34.372Z,100645.91
2023-05-10T19:39:02.409Z,100645.44
2023-05-10T19:41:31.876Z,100640.09
2023-05-10T19:43:59.856Z,100642.41
2023-05-10T19:46:27.658Z,100646.97
2023-05-10T19:48:55.474Z,100641.69
2023-05-10T19:51:23.184Z,100646.00
2023-05-10T19:53:50.911Z,100653.66
2023-05-10T19:56:19.467Z,100661.28
2023-05-10T19:58:48.501Z,100660.13
2023-05-10T20:01:16.249Z,100670.13
2023-05-10T20:03:44.057Z,100659.47
2023-05-10T20:06:12.178Z,100659.25
2023-05-10T20:08:39.866Z,100659.91
2023-05-10T20:11:07.537Z,100655.69
2023-05-10T20:13:35.230Z,100656.78
2023-05-10T20:16:06.104Z,100656.28
2023-05-10T20:18:33.875Z,100653.53
2023-05-10T20:21:01.928Z,100658.03
2023-05-10T20:23:29.661Z,100664.97
2023-05-10T20:25:57.349Z,100652.94
2023-05-10T20:28:26.490Z,100658.22
2023-05-10T20:30:55.513Z,100662.56
2023-05-10T20:33:24.819Z,100662.44
2023-05-10T20:35:52.556Z,100655.06
2023-05-10T20:38:21.082Z,100659.59
2023-05-10T20:40:49.077Z,100661.25
2023-05-10T20:43:16.833Z,100665.00
2023-05-10T20:45:44.490Z,100676.34
2023-05-10T20:48:12.173Z,100669.72
2023-05-10T20:50:41.265Z,100673.16
2023-05-10T20:53:08.973Z,100668.28
2023-05-10T20:55:36.706Z,100674.34
2023-05-10T20:58:05.133Z,100671.81
2023-05-10T21:00:33.163Z,100675.44
2023-05-10T21:03:00.894Z,100668.44
2023-05-10T21:05:28.641Z,100670.97
2023-05-10T21:07:58.445Z,100667.00
2023-05-10T21:10:28.327Z,100666.34
2023-05-10T21:12:56.202Z,100659.78
2023-05-10T21:15:24.449Z,100668.03
2023-05-10T21:17:53.873Z,100662.31
2023-05-10T21:20:21.669Z,100666.56
2023-05-10T21:22:49.393Z,100664.63
2023-05-10T21:25:19.090Z,100673.34
2023-05-10T21:27:47.233Z,100683.28
2023-05-10T21:30:15.303Z,100687.84
2023-05-10T21:32:43.134Z,100688.97
2023-05-10T21:35:11.157Z,100675.66
2023-05-10T21:37:38.905Z,100674.34
2023-05-10T21:42:01.641Z,100679.66
2023-05-10T21:44:29.485Z,100680.16
2023-05-10T21:46:57.172Z,100682.75
2023-05-10T21:49:24.904Z,100674.63
2023-05-10T21:51:52.616Z,100676.47
2023-05-10T21:54:20.360Z,100676.63
2023-05-10T21:56:48.483Z,100677.47
2023-05-10T21:59:17.991Z,100678.09
2023-05-10T22:01:45.893Z,100686.28
2023-05-10T22:04:14.112Z,100682.66
2023-05-10T22:06:41.853Z,100695.50
2023-05-10T22:09:10.092Z,100687.75
2023-05-10T22:11:37.752Z,100687.50
2023-05-10T22:14:05.431Z,100684.13
2023-05-10T22:16:34.470Z,100688.22
2023-05-10T22:19:02.199Z,100686.53
2023-05-10T22:21:29.994Z,100691.97
2023-05-10T22:23:57.708Z,100697.53
2023-05-10T22:26:26.084Z,100700.06
2023-05-10T22:28:53.800Z,100700.44
2023-05-10T22:31:21.571Z,100694.63
2023-05-10T22:33:50.690Z,100701.41
2023-05-10T22:36:18.350Z,100704.91
2023-05-10T22:38:46.063Z,100704.47
2023-05-10T22:41:13.701Z,100709.03
2023-05-10T22:43:41.429Z,100711.34
2023-05-10T22:46:09.271Z,100705.91
2023-05-10T22:48:37.109Z,100706.72
2023-05-10T22:51:06.332Z,100708.53
2023-05-10T22:53:33.980Z,100702.50
2023-05-10T22:56:01.791Z,100705.03
2023-05-10T22:58:29.477Z,100704.06
2023-05-10T23:00:57.169Z,100699.47
2023-05-10T23:03:25.792Z,100698.50
2023-05-10T23:05:53.501Z,100704.69
2023-05-10T23:08:22.652Z,100704.56
2023-05-10T23:10:50.497Z,100702.03
2023-05-10T23:13:18.786Z,100709.66
2023-05-10T23:15:46.553Z,100711.47
2023-05-10T23:18:14.360Z,100719.81
2023-05-10T23:20:42.687Z,100717.00
2023-05-10T23:23:10.372Z,100718.22
2023-05-10T23:25:39.524Z,100716.75
2023-05-10T23:28:07.201Z,100703.22
2023-05-10T23:30:34.910Z,100702.94
2023-05-10T23:33:03.155Z,100703.78
2023-05-10T23:35:30.958Z,100702.59
2023-05-10T23:37:58.727Z,100707.28
2023-05-10T23:40:26.585Z,100707.91
2023-05-10T23:42:55.606Z,100698.78
2023-05-10T23:45:23.291Z,100700.28
2023-05-10T23:47:51.008Z,100702.84
2023-05-10T23:50:19.092Z,100708.41
2023-05-10T23:52:46.947Z,100695.09
2023-05-10T23:55:14.825Z,100703.75
2023-05-10T23:57:42.520Z,100705.94
